createdAt,value
2023-08-05T00:01:41.829Z,99293.72
2023-08-05T00:04:08.497Z,99302.28
2023-08-05T00:06:35.045Z,99299.84
2023-08-05T00:09:01.555Z,99302.53
2023-08-05T00:11:28.138Z,99300.34
2023-08-05T00:13:54.587Z,99304.38
2023-08-05T00:16:21.098Z,99301.16
2023-08-05T00:18:47.595Z,99295.00
2023-08-05T00:21:14.552Z,99290.88
2023-08-05T00:23:41.113Z,99300.69
2023-08-05T00:26:07.620Z,99299.03
2023-08-05T00:28:34.075Z,99303.19
2023-08-05T00:31:00.592Z,99306.34
2023-08-05T00:33:27.169Z,99306.97
2023-08-05T00:35:53.756Z,99299.63
2023-08-05T00:38:21.209Z,99307.72
2023-08-05T00:40:47.749Z,99305.25
2023-08-05T00:43:14.277Z,99307.28
2023-08-05T00:45:40.883Z,99314.38
2023-08-05T00:48:07.664Z,99316.31
2023-08-05T00:50:35.114Z,99324.19
2023-08-05T00:53:04.773Z,99322.16
2023-08-05T00:55:33.524Z,99315.84
2023-08-05T00:58:00.315Z,99316.66
2023-08-05T01:00:26.866Z,99326.28
2023-08-05T01:02:53.982Z,99325.13
2023-08-05T01:05:21.022Z,99333.00
2023-08-05T01:07:48.355Z,99328.56
2023-08-05T01:10:15.135Z,99324.06
2023-08-05T01:12:43.056Z,99334.09
2023-08-05T01:15:09.857Z,99334.38
2023-08-05T01:17:36.708Z,99325.25
2023-08-05T01:20:05.420Z,99326.00
2023-08-05T01:22:41.735Z,99328.84
2023-08-05T01:25:25.597Z,99320.59
2023-08-05T01:27:53.551Z,99317.03
2023-08-05T01:30:21.351Z,99315.59
2023-08-05T01:32:48.647Z,99312.75
2023-08-05T01:35:15.215Z,99320.38
2023-08-05T01:37:41.720Z,99310.03
2023-08-05T01:40:09.205Z,99314.84
2023-08-05T01:42:35.697Z,99310.19
2023-08-05T01:45:02.205Z,99304.84
2023-08-05T01:47:28.779Z,99308.78
2023-08-05T01:49:55.452Z,99309.84
2023-08-05T01:52:22.013Z,99311.16
2023-08-05T01:54:48.645Z,99308.94
2023-08-05T01:57:15.140Z,99313.47
2023-08-05T01:59:41.686Z,99323.19
2023-08-05T02:02:08.234Z,99317.69
2023-08-05T02:04:35.262Z,99320.84
2023-08-05T02:07:01.833Z,99322.88
2023-08-05T02:09:28.327Z,99315.75
2023-08-05T02:11:54.782Z,99310.16
2023-08-05T02:14:21.293Z,99304.03
2023-08-05T02:16:47.999Z,99295.88
2023-08-05T02:19:14.691Z,99297.81
2023-08-05T02:21:41.292Z,99304.66
2023-08-05T02:24:11.284Z,99303.31
2023-08-05T02:26:38.653Z,99300.75
2023-08-05T02:29:05.205Z,99298.69
2023-08-05T02:31:31.767Z,99297.38
2023-08-05T02:33:58.300Z,99291.75
2023-08-05T02:36:25.317Z,99293.13
2023-08-05T02:38:51.818Z,99289.34
2023-08-05T02:41:21.430Z,99291.63
2023-08-05T02:43:47.996Z,99282.81
2023-08-05T02:46:14.705Z,99274.75
2023-08-05T02:48:41.337Z,99273.34
2023-08-05T02:51:07.878Z,99276.56
2023-08-05T02:53:34.469Z,99277.41
2023-08-05T02:56:01.090Z,99276.63
2023-08-05T02:58:27.838Z,99278.38
2023-08-05T03:00:55.120Z,99267.31
2023-08-05T03:03:21.759Z,99275.78
2023-08-05T03:05:48.290Z,99267.50
2023-08-05T03:08:14.836Z,99274.41
2023-08-05T03:10:41.632Z,99274.09
2023-08-05T03:13:09.247Z,99275.50
2023-08-05T03:15:35.839Z,99267.53
2023-08-05T03:18:02.471Z,99279.72
2023-08-05T03:20:30.983Z,99284.19
2023-08-05T03:22:58.011Z,99284.19
2023-08-05T03:25:26.016Z,99286.13
2023-08-05T03:27:52.595Z,99291.97
2023-08-05T03:30:19.815Z,99297.25
2023-08-05T03:32:49.557Z,99294.50
2023-08-05T03:35:16.550Z,99287.00
2023-08-05T03:37:43.194Z,99287.56
2023-08-05T03:40:09.859Z,99280.56
2023-08-05T03:42:36.756Z,99273.78
2023-08-05T03:45:05.462Z,99273.91
2023-08-05T03:47:33.086Z,99271.50
2023-08-05T03:49:59.688Z,99270.34
2023-08-05T03:52:27.758Z,99279.88
2023-08-05T03:54:54.820Z,99280.38
2023-08-05T03:57:21.342Z,99285.19
2023-08-05T03:59:49.230Z,99287.06
2023-08-05T04:02:16.041Z,99293.06
2023-08-05T04:04:43.823Z,99292.47
2023-08-05T04:07:10.761Z,99293.22
2023-08-05T04:09:38.210Z,99292.56
2023-08-05T04:12:10.348Z,99289.06
2023-08-05T04:14:38.841Z,99291.38
2023-08-05T04:17:05.727Z,99288.66
2023-08-05T04:19:34.083Z,99279.63
2023-08-05T04:22:02.092Z,99285.97
2023-08-05T04:24:29.615Z,99285.66
2023-08-05T04:26:56.172Z,99287.41
2023-08-05T04:29:25.615Z,99284.28
2023-08-05T04:31:53.667Z,99284.03
2023-08-05T04:34:20.792Z,99285.25
2023-08-05T04:36:51.609Z,99292.00
2023-08-05T04:39:22.177Z,99290.41
2023-08-05T04:41:49.174Z,99297.56
2023-08-05T04:44:15.819Z,99294.75
2023-08-05T04:46:42.449Z,99296.00
2023-08-05T04:49:10.970Z,99308.31
2023-08-05T04:51:38.099Z,99296.75
2023-08-05T04:54:05.180Z,99300.19
2023-08-05T04:56:31.916Z,99300.84
2023-08-05T04:58:58.470Z,99295.91
2023-08-05T05:01:25.115Z,99301.72
2023-08-05T05:03:52.973Z,99305.34
2023-08-05T05:06:19.654Z,99301.66
2023-08-05T05:08:46.229Z,99301.66
2023-08-05T05:11:12.949Z,99294.84
2023-08-05T05:13:39.876Z,99298.69
2023-08-05T05:16:07.434Z,99293.16
2023-08-05T05:18:33.883Z,99298.34
2023-08-05T05:21:01.791Z,99292.38
2023-08-05T05:23:28.455Z,99290.25
2023-08-05T05:25:55.046Z,99288.16
2023-08-05T05:28:21.593Z,99292.63
2023-08-05T05:30:48.125Z,99289.03
2023-08-05T05:33:14.672Z,99291.13
2023-08-05T05:35:41.189Z,99291.41
2023-08-05T05:38:07.682Z,99277.88
2023-08-05T05:40:34.188Z,99276.75
2023-08-05T05:43:00.738Z,99266.97
2023-08-05T05:45:29.376Z,99269.00
2023-08-05T05:47:55.961Z,99261.06
2023-08-05T05:50:22.906Z,99266.63
2023-08-05T05:52:54.557Z,99258.13
2023-08-05T05:55:21.731Z,99259.19
2023-08-05T05:57:50.010Z,99252.06
2023-08-05T06:00:16.697Z,99256.63
2023-08-05T06:02:43.455Z,99253.13
2023-08-05T06:05:13.259Z,99247.84
2023-08-05T06:07:40.054Z,99241.59
2023-08-05T06:10:07.244Z,99237.09
2023-08-05T06:12:37.466Z,99240.22
2023-08-05T06:15:07.727Z,99232.66
2023-08-05T06:17:34.551Z,99233.97
2023-08-05T06:20:01.029Z,99235.56
2023-08-05T06:22:27.613Z,99226.50
2023-08-05T06:24:54.124Z,99218.25
2023-08-05T06:27:20.630Z,99225.09
2023-08-05T06:29:49.967Z,99221.94
2023-08-05T06:32:16.452Z,99211.31
2023-08-05T06:34:45.169Z,99213.94
2023-08-05T06:37:11.659Z,99216.06
2023-08-05T06:39:39.175Z,99224.97
2023-08-05T06:42:05.970Z,99232.47
2023-08-05T06:44:32.608Z,99227.16
2023-08-05T06:46:59.257Z,99228.63
2023-08-05T06:49:28.967Z,99226.59
2023-08-05T06:51:58.123Z,99234.88
2023-08-05T06:54:25.100Z,99247.75
2023-08-05T06:56:52.668Z,99235.03
2023-08-05T06:59:19.312Z,99236.63
2023-08-05T07:01:48.733Z,99242.31
2023-08-05T07:04:15.781Z,99233.72
2023-08-05T07:06:42.640Z,99237.22
2023-08-05T07:09:09.156Z,99240.28
2023-08-05T07:11:37.808Z,99237.84
2023-08-05T07:14:04.625Z,99227.31
2023-08-05T07:16:31.161Z,99227.75
2023-08-05T07:18:59.972Z,99222.16
2023-08-05T07:21:26.703Z,99227.22
2023-08-05T07:23:55.280Z,99232.66
2023-08-05T07:26:21.839Z,99223.38
2023-08-05T07:28:49.957Z,99223.53
2023-08-05T07:31:17.957Z,99214.47
2023-08-05T07:33:47.399Z,99217.94
2023-08-05T07:36:19.562Z,99212.28
2023-08-05T07:38:48.028Z,99205.63
2023-08-05T07:41:16.149Z,99205.84
2023-08-05T07:43:43.630Z,99205.19
2023-08-05T07:46:15.008Z,99199.50
2023-08-05T07:48:42.084Z,99190.00
2023-08-05T07:51:08.677Z,99175.69
2023-08-05T07:53:38.218Z,99173.53
2023-08-05T07:56:14.121Z,99170.09
2023-08-05T07:58:43.239Z,99161.16
2023-08-05T08:01:14.686Z,99163.53
2023-08-05T08:03:46.514Z,99158.81
2023-08-05T08:06:21.732Z,99168.63
2023-08-05T08:08:52.696Z,99167.22
2023-08-05T08:11:19.384Z,99162.53
2023-08-05T08:13:45.885Z,99153.69
2023-08-05T08:16:12.594Z,99161.56
2023-08-05T08:18:39.296Z,99158.91
2023-08-05T08:21:06.564Z,99155.75
2023-08-05T08:23:33.176Z,99148.66
2023-08-05T08:26:00.137Z,99145.50
2023-08-05T08:28:27.487Z,99138.09
2023-08-05T08:30:58.339Z,99140.91
2023-08-05T08:33:26.029Z,99138.06
2023-08-05T08:35:53.324Z,99139.13
2023-08-05T08:38:20.330Z,99134.94
2023-08-05T08:40:51.613Z,99133.25
2023-08-05T08:43:20.048Z,99141.16
2023-08-05T08:45:56.158Z,99127.13
2023-08-05T08:48:25.016Z,99134.97
2023-08-05T08:50:53.777Z,99128.34
2023-08-05T08:53:23.865Z,99122.41
2023-08-05T08:55:50.453Z,99119.88
2023-08-05T08:58:17.067Z,99127.78
2023-08-05T09:00:44.166Z,99123.53
2023-08-05T09:03:11.090Z,99106.94
2023-08-05T09:05:43.361Z,99112.00
2023-08-05T09:08:10.627Z,99116.22
2023-08-05T09:10:38.884Z,99112.66
2023-08-05T09:13:08.007Z,99116.91
2023-08-05T09:15:37.189Z,99114.19
2023-08-05T09:18:08.817Z,99113.09
2023-08-05T09:20:36.832Z,99112.91
2023-08-05T09:23:05.963Z,99109.97
2023-08-05T09:25:34.025Z,99111.66
2023-08-05T09:28:05.270Z,99108.91
2023-08-05T09:30:33.777Z,99118.81
2023-08-05T09:33:04.048Z,99106.13
2023-08-05T09:35:30.881Z,99112.41
2023-08-05T09:37:57.607Z,99102.22
2023-08-05T09:40:35.024Z,99102.88
2023-08-05T09:43:04.090Z,99109.53
2023-08-05T09:45:34.930Z,99104.84
2023-08-05T09:48:08.658Z,99097.00
2023-08-05T09:50:41.221Z,99095.25
2023-08-05T09:53:09.553Z,99092.09
2023-08-05T09:55:37.828Z,99088.69
2023-08-05T09:58:08.873Z,99091.06
2023-08-05T10:00:42.741Z,99096.06
2023-08-05T10:03:16.717Z,99094.31
2023-08-05T10:05:45.694Z,99083.03
2023-08-05T10:08:14.191Z,99078.88
2023-08-05T10:10:41.613Z,99079.84
2023-08-05T10:13:17.222Z,99076.28
2023-08-05T10:15:47.447Z,99067.66
2023-08-05T10:18:16.154Z,99062.44
2023-08-05T10:20:42.779Z,99066.13
2023-08-05T10:23:10.780Z,99056.59
2023-08-05T10:25:48.884Z,99063.44
2023-08-05T10:28:24.866Z,99062.25
2023-08-05T10:30:52.539Z,99043.13
2023-08-05T10:33:19.677Z,99033.75
2023-08-05T10:35:46.862Z,99039.72
2023-08-05T10:38:15.975Z,99040.59
2023-08-05T10:41:03.975Z,99042.31
2023-08-05T10:43:39.903Z,99039.59
2023-08-05T10:46:06.507Z,99039.59
2023-08-05T10:48:46.015Z,99039.63
2023-08-05T10:51:14.540Z,99037.13
2023-08-05T10:53:47.406Z,99032.19
2023-08-05T10:56:15.079Z,99029.88
2023-08-05T10:58:50.224Z,99034.34
2023-08-05T11:01:17.470Z,99020.28
2023-08-05T11:03:56.014Z,99011.63
2023-08-05T11:06:24.020Z,99011.59
2023-08-05T11:08:50.706Z,99015.00
2023-08-05T11:11:17.619Z,99008.16
2023-08-05T11:13:46.160Z,99005.53
2023-08-05T11:16:14.218Z,99004.53
2023-08-05T11:18:42.414Z,99002.81
2023-08-05T11:21:12.620Z,99009.78
2023-08-05T11:23:40.894Z,99009.72
2023-08-05T11:26:08.380Z,99006.09
2023-08-05T11:28:35.298Z,99001.78
2023-08-05T11:31:02.804Z,98996.81
2023-08-05T11:33:32.927Z,98989.22
2023-08-05T11:36:01.914Z,98981.41
2023-08-05T11:38:30.843Z,98970.03
2023-08-05T11:40:58.135Z,98970.75
2023-08-05T11:43:25.211Z,98968.22
2023-08-05T11:45:53.185Z,98953.59
2023-08-05T11:48:26.205Z,98953.69
2023-08-05T11:51:01.163Z,98946.66
2023-08-05T11:53:28.476Z,98941.47
2023-08-05T11:55:55.129Z,98934.47
2023-08-05T11:58:24.606Z,98935.44
2023-08-05T12:00:56.064Z,98929.31
2023-08-05T12:03:22.693Z,98923.22
2023-08-05T12:06:04.378Z,98917.13
2023-08-05T12:08:45.491Z,98917.16
2023-08-05T12:11:19.151Z,98905.84
2023-08-05T12:13:45.872Z,98899.72
2023-08-05T12:16:19.896Z,98897.13
2023-08-05T12:18:53.254Z,98886.56
2023-08-05T12:21:24.467Z,98892.66
2023-08-05T12:23:51.076Z,98885.69
2023-08-05T12:26:26.502Z,98883.13
2023-08-05T12:28:52.986Z,98888.34
2023-08-05T12:31:22.220Z,98884.91
2023-08-05T12:33:48.801Z,98881.41
2023-08-05T12:36:15.420Z,98870.03
2023-08-05T12:38:42.118Z,98868.31
2023-08-05T12:41:08.675Z,98876.19
2023-08-05T12:43:35.254Z,98864.00
2023-08-05T12:46:06.322Z,98869.25
2023-08-05T12:48:35.079Z,98864.91
2023-08-05T12:51:01.651Z,98862.28
2023-08-05T12:53:30.628Z,98871.88
2023-08-05T12:55:57.867Z,98859.66
2023-08-05T12:58:24.446Z,98864.81
2023-08-05T13:00:53.823Z,98859.53
2023-08-05T13:03:20.659Z,98856.00
2023-08-05T13:05:47.282Z,98842.97
2023-08-05T13:08:16.616Z,98852.56
2023-08-05T13:10:48.462Z,98852.56
2023-08-05T13:13:15.171Z,98852.56
2023-08-05T13:15:43.485Z,98839.53
2023-08-05T13:18:13.328Z,98845.63
2023-08-05T13:20:40.005Z,98840.31
2023-08-05T13:23:06.697Z,98835.97
2023-08-05T13:25:38.533Z,98828.13
2023-08-05T13:28:07.334Z,98831.53
2023-08-05T13:30:35.887Z,98831.50
2023-08-05T13:33:05.085Z,98820.25
2023-08-05T13:35:35.722Z,98811.63
2023-08-05T13:38:02.431Z,98814.22
2023-08-05T13:40:29.063Z,98812.53
2023-08-05T13:42:55.621Z,98809.00
2023-08-05T13:45:58.471Z,98815.97
2023-08-05T13:48:29.117Z,98800.31
2023-08-05T13:51:06.393Z,98797.69
2023-08-05T13:53:36.545Z,98798.50
2023-08-05T13:56:03.702Z,98795.94
2023-08-05T13:58:30.458Z,98791.50
2023-08-05T14:01:00.233Z,98787.97
2023-08-05T14:03:29.780Z,98779.25
2023-08-05T14:06:00.596Z,98781.03
2023-08-05T14:08:30.538Z,98775.88
2023-08-05T14:10:57.160Z,98769.91
2023-08-05T14:13:26.761Z,98770.88
2023-08-05T14:15:55.976Z,98773.47
2023-08-05T14:18:23.233Z,98769.13
2023-08-05T14:20:50.257Z,98779.59
2023-08-05T14:23:23.344Z,98787.47
2023-08-05T14:25:50.093Z,98797.09
2023-08-05T14:28:18.871Z,98810.88
2023-08-05T14:30:47.888Z,98818.63
2023-08-05T14:33:14.472Z,98833.34
2023-08-05T14:35:41.096Z,98814.06
2023-08-05T14:38:10.537Z,98810.28
2023-08-05T14:40:37.700Z,98799.78
2023-08-05T14:43:05.191Z,98795.53
2023-08-05T14:45:31.938Z,98785.88
2023-08-05T14:47:59.490Z,98770.88
2023-08-05T14:50:26.379Z,98764.53
2023-08-05T14:52:55.898Z,98762.09
2023-08-05T14:55:24.426Z,98753.28
2023-08-05T14:57:51.064Z,98736.78
2023-08-05T15:00:17.726Z,98729.00
2023-08-05T15:02:45.667Z,98731.38
2023-08-05T15:05:12.281Z,98727.13
2023-08-05T15:07:41.486Z,98710.50
2023-08-05T15:10:10.107Z,98708.06
2023-08-05T15:12:36.961Z,98713.22
2023-08-05T15:15:04.869Z,98707.25
2023-08-05T15:17:33.644Z,98703.91
2023-08-05T15:20:00.386Z,98702.22
2023-08-05T15:22:29.739Z,98690.91
2023-08-05T15:24:58.720Z,98689.09
2023-08-05T15:27:25.348Z,98690.09
2023-08-05T15:30:01.237Z,98698.00
2023-08-05T15:32:30.913Z,98695.47
2023-08-05T15:34:57.526Z,98698.00
2023-08-05T15:37:24.067Z,98703.41
2023-08-05T15:39:54.654Z,98699.88
2023-08-05T15:42:21.187Z,98707.56
2023-08-05T15:44:50.272Z,98712.00
2023-08-05T15:47:17.812Z,98706.06
2023-08-05T15:49:44.489Z,98704.38
2023-08-05T15:52:13.128Z,98697.38
2023-08-05T15:54:45.575Z,98693.81
2023-08-05T15:57:12.118Z,98693.91
2023-08-05T15:59:38.695Z,98688.75
2023-08-05T16:02:06.378Z,98687.06
2023-08-05T16:04:38.182Z,98684.44
2023-08-05T16:07:06.167Z,98688.78
2023-08-05T16:09:32.867Z,98686.25
2023-08-05T16:11:59.442Z,98683.63
2023-08-05T16:14:25.998Z,98680.13
2023-08-05T16:16:52.833Z,98684.38
2023-08-05T16:19:20.940Z,98681.72
2023-08-05T16:21:48.411Z,98674.75
2023-08-05T16:24:14.897Z,98680.78
2023-08-05T16:26:44.604Z,98674.75
2023-08-05T16:29:12.796Z,98679.06
2023-08-05T16:31:42.274Z,98666.13
2023-08-05T16:34:08.750Z,98668.81
2023-08-05T16:36:37.222Z,98664.41
2023-08-05T16:39:04.992Z,98662.63
2023-08-05T16:41:31.496Z,98661.88
2023-08-05T16:43:59.377Z,98656.59
2023-08-05T16:46:38.955Z,98650.53
2023-08-05T16:49:12.540Z,98650.53
2023-08-05T16:51:39.164Z,98643.59
2023-08-05T16:54:07.754Z,98652.31
2023-08-05T16:56:37.384Z,98649.72
2023-08-05T16:59:06.362Z,98648.03
2023-08-05T17:01:34.104Z,98643.63
2023-08-05T17:04:01.104Z,98646.22
2023-08-05T17:06:27.672Z,98650.56
2023-08-05T17:08:54.217Z,98646.19
2023-08-05T17:11:20.719Z,98643.66
2023-08-05T17:13:47.229Z,98633.97
2023-08-05T17:16:13.730Z,98643.59
2023-08-05T17:18:41.954Z,98638.47
2023-08-05T17:21:09.517Z,98641.94
2023-08-05T17:23:36.054Z,98640.19
2023-08-05T17:26:02.664Z,98633.19
2023-08-05T17:28:29.390Z,98632.38
2023-08-05T17:30:56.090Z,98628.81
2023-08-05T17:33:24.720Z,98619.34
2023-08-05T17:35:53.225Z,98615.75
2023-08-05T17:38:19.891Z,98610.53
2023-08-05T17:40:46.507Z,98618.28
2023-08-05T17:43:16.004Z,98613.09
2023-08-05T17:45:42.499Z,98613.03
2023-08-05T17:48:08.955Z,98613.00
2023-08-05T17:50:35.461Z,98608.59
2023-08-05T17:53:11.419Z,98597.34
2023-08-05T17:55:41.704Z,98590.44
2023-08-05T17:58:10.368Z,98586.97
2023-08-05T18:00:40.873Z,98599.97
2023-08-05T18:03:07.571Z,98596.47
2023-08-05T18:05:34.146Z,98591.25
2023-08-05T18:08:00.701Z,98580.00
2023-08-05T18:10:27.279Z,98577.34
2023-08-05T18:12:53.843Z,98580.06
2023-08-05T18:15:20.471Z,98578.38
2023-08-05T18:17:50.714Z,98573.09
2023-08-05T18:20:17.927Z,98570.47
2023-08-05T18:22:44.625Z,98566.88
2023-08-05T18:25:11.306Z,98572.03
2023-08-05T18:27:40.976Z,98578.91
2023-08-05T18:30:08.070Z,98570.94
2023-08-05T18:32:35.307Z,98570.03
2023-08-05T18:35:01.936Z,98577.84
2023-08-05T18:37:28.562Z,98570.03
2023-08-05T18:39:55.073Z,98566.47
2023-08-05T18:42:21.626Z,98564.72
2023-08-05T18:44:48.350Z,98564.66
2023-08-05T18:47:14.968Z,98562.09
2023-08-05T18:49:41.702Z,98557.75
2023-08-05T18:52:08.581Z,98558.53
2023-08-05T18:54:35.233Z,98562.06
2023-08-05T18:57:01.757Z,98552.63
2023-08-05T18:59:28.338Z,98557.75
2023-08-05T19:01:55.368Z,98563.00
2023-08-05T19:04:25.223Z,98558.69
2023-08-05T19:06:51.848Z,98555.97
2023-08-05T19:09:18.423Z,98545.59
2023-08-05T19:11:44.941Z,98549.69
2023-08-05T19:14:11.489Z,98543.84
2023-08-05T19:16:38.069Z,98549.97
2023-08-05T19:19:05.240Z,98543.88
2023-08-05T19:21:31.876Z,98547.38
2023-08-05T19:23:58.374Z,98541.28
2023-08-05T19:26:24.922Z,98542.91
2023-08-05T19:28:51.500Z,98533.47
2023-08-05T19:31:18.145Z,98543.88
2023-08-05T19:33:44.872Z,98532.66
2023-08-05T19:36:17.293Z,98537.97
2023-08-05T19:38:44.874Z,98540.44
2023-08-05T19:41:11.920Z,98533.66
2023-08-05T19:43:42.350Z,98536.22
2023-08-05T19:46:13.254Z,98540.25
2023-08-05T19:48:43.550Z,98539.22
2023-08-05T19:51:14.403Z,98528.97
2023-08-05T19:53:43.299Z,98535.06
2023-08-05T19:56:10.246Z,98537.53
2023-08-05T19:58:36.832Z,98534.16
2023-08-05T20:01:06.651Z,98524.66
2023-08-05T20:03:34.472Z,98516.03
2023-08-05T20:06:01.122Z,98515.97
2023-08-05T20:08:27.716Z,98513.50
2023-08-05T20:10:55.346Z,98516.94
2023-08-05T20:13:23.538Z,98522.09
2023-08-05T20:15:51.142Z,98522.13
2023-08-05T20:18:19.513Z,98523.03
2023-08-05T20:20:46.188Z,98522.91
2023-08-05T20:23:13.538Z,98531.44
2023-08-05T20:25:41.120Z,98529.72
2023-08-05T20:28:07.682Z,98527.84
2023-08-05T20:30:37.814Z,98520.84
2023-08-05T20:33:04.826Z,98520.81
2023-08-05T20:35:35.422Z,98513.91
2023-08-05T20:38:02.371Z,98513.03
2023-08-05T20:40:31.635Z,98506.88
2023-08-05T20:42:58.226Z,98506.78
2023-08-05T20:45:24.766Z,98500.78
2023-08-05T20:47:52.348Z,98502.34
2023-08-05T20:50:19.118Z,98498.09
2023-08-05T20:52:45.817Z,98493.78
2023-08-05T20:55:12.389Z,98492.00
2023-08-05T20:57:39.068Z,98487.66
2023-08-05T21:00:06.316Z,98478.91
2023-08-05T21:02:33.046Z,98484.97
2023-08-05T21:05:01.059Z,98485.72
2023-08-05T21:07:31.274Z,98486.81
2023-08-05T21:09:58.037Z,98478.91
2023-08-05T21:12:24.688Z,98481.50
2023-08-05T21:14:53.281Z,98473.69
2023-08-05T21:17:19.911Z,98474.56
2023-08-05T21:19:46.665Z,98471.19
2023-08-05T21:22:13.271Z,98468.59
2023-08-05T21:24:39.884Z,98470.41
2023-08-05T21:27:06.660Z,98464.16
2023-08-05T21:29:35.308Z,98468.41
2023-08-05T21:32:02.038Z,98465.81
2023-08-05T21:34:29.051Z,98457.97
2023-08-05T21:36:55.701Z,98461.44
2023-08-05T21:39:22.331Z,98455.50
2023-08-05T21:41:48.936Z,98453.78
2023-08-05T21:44:15.491Z,98446.03
2023-08-05T21:46:42.245Z,98441.59
2023-08-05T21:49:08.851Z,98438.03
2023-08-05T21:51:35.398Z,98433.91
2023-08-05T21:54:05.190Z,98432.91
2023-08-05T21:56:31.755Z,98425.19
2023-08-05T21:58:59.134Z,98426.00
2023-08-05T22:01:25.707Z,98415.63
2023-08-05T22:03:52.367Z,98412.91
2023-08-05T22:06:18.933Z,98413.00
2023-08-05T22:08:45.451Z,98407.66
2023-08-05T22:11:12.076Z,98404.16
2023-08-05T22:13:38.724Z,98396.28
2023-08-05T22:16:05.348Z,98397.03
2023-08-05T22:18:31.885Z,98392.78
2023-08-05T22:21:01.600Z,98396.28
2023-08-05T22:23:28.205Z,98391.84
2023-08-05T22:25:54.762Z,98384.84
2023-08-05T22:28:21.322Z,98382.22
2023-08-05T22:30:55.752Z,98375.28
2023-08-05T22:33:23.408Z,98377.84
2023-08-05T22:35:52.255Z,98370.06
2023-08-05T22:38:18.831Z,98363.94
2023-08-05T22:40:45.476Z,98356.38
2023-08-05T22:43:12.021Z,98363.28
2023-08-05T22:45:38.547Z,98351.13
2023-08-05T22:48:05.405Z,98357.06
2023-08-05T22:50:32.192Z,98351.00
2023-08-05T22:52:58.751Z,98353.75
2023-08-05T22:55:25.378Z,98354.53
2023-08-05T22:57:51.940Z,98362.47
2023-08-05T23:00:18.444Z,98358.03
2023-08-05T23:02:45.802Z,98364.06
2023-08-05T23:05:12.405Z,98356.16
2023-08-05T23:07:39.040Z,98352.59
2023-08-05T23:10:05.791Z,98350.84
2023-08-05T23:12:32.603Z,98357.69
2023-08-05T23:14:59.135Z,98371.53
2023-08-05T23:17:28.013Z,98374.88
2023-08-05T23:19:54.558Z,98375.63
2023-08-05T23:22:21.638Z,98367.78
2023-08-05T23:24:48.144Z,98365.28
2023-08-05T23:27:14.673Z,98350.75
2023-08-05T23:29:41.136Z,98348.25
2023-08-05T23:32:08.126Z,98338.81
2023-08-05T23:34:36.859Z,98337.00
2023-08-05T23:37:03.902Z,98324.09
2023-08-05T23:39:30.837Z,98320.69
2023-08-05T23:42:00.153Z,98323.22
2023-08-05T23:44:26.794Z,98316.22
2023-08-05T23:46:53.427Z,98325.72
2023-08-05T23:49:21.057Z,98324.81
2023-08-05T23:51:47.668Z,98320.53
2023-08-05T23:54:15.673Z,98325.63
2023-08-05T23:56:42.139Z,98313.50
2023-08-05T23:59:08.641Z,98311.75
